Time;durP1;ratioP1;P1;durP2;ratioP2;P2;SDS_P1;SDS_P2;PMS_P1;PMS_P2;Temp;Humidity;BMP_temperature;BMP_pressure;BME280_temperature;BME280_humidity;BME280_pressure;Samples;Min_cycle;Max_cycle;Signal;HPM_P1;HPM_P2
2022/10/23 00:00:58;;;;;;;40.27;30.77;;;11.50;95.70;;;;;;5050345;28;20199;-92
2022/10/23 00:03:24;;;;;;;54.03;31.67;;;11.50;95.70;;;;;;5048692;28;20183;-92
2022/10/23 00:05:49;;;;;;;42.87;32.30;;;11.40;95.70;;;;;;5049296;28;20223;-93
2022/10/23 00:08:15;;;;;;;53.87;31.47;;;11.40;95.70;;;;;;5049480;28;20183;-93
2022/10/23 00:10:42;;;;;;;47.33;32.97;;;11.40;95.80;;;;;;5053598;28;20232;-93
2022/10/23 00:13:08;;;;;;;46.23;31.60;;;11.30;95.80;;;;;;5050811;28;20176;-92
2022/10/23 00:15:35;;;;;;;44.77;31.37;;;11.40;95.80;;;;;;5049472;28;20231;-93
2022/10/23 00:18:02;;;;;;;54.37;32.07;;;11.40;95.80;;;;;;5049920;28;20223;-92
2022/10/23 00:20:28;;;;;;;54.73;31.37;;;11.30;95.80;;;;;;5051506;28;20172;-92
2022/10/23 00:22:53;;;;;;;46.70;31.83;;;11.30;95.80;;;;;;5052927;28;20655;-92
2022/10/23 00:25:19;;;;;;;47.90;32.90;;;11.30;95.80;;;;;;5055513;28;20184;-93
2022/10/23 00:27:45;;;;;;;59.03;33.50;;;11.30;95.90;;;;;;5054508;28;20179;-93
2022/10/23 00:30:11;;;;;;;43.70;33.17;;;11.30;95.90;;;;;;5051832;28;20183;-93
2022/10/23 00:32:37;;;;;;;53.87;32.57;;;11.30;95.90;;;;;;5048051;28;20200;-93
2022/10/23 00:35:03;;;;;;;57.90;33.60;;;11.30;95.90;;;;;;5053298;28;20234;-93
2022/10/23 00:37:28;;;;;;;46.33;32.23;;;11.30;95.90;;;;;;5049545;28;20222;-93
2022/10/23 00:39:54;;;;;;;48.47;31.30;;;11.20;95.90;;;;;;5048897;28;20180;-93
2022/10/23 00:42:22;;;;;;;52.53;34.13;;;11.20;95.90;;;;;;5048828;28;20196;-92
2022/10/23 00:44:50;;;;;;;49.27;31.27;;;11.10;95.90;;;;;;5047838;28;20539;-92
2022/10/23 00:47:17;;;;;;;47.00;32.77;;;11.10;95.90;;;;;;5047608;28;20218;-93
2022/10/23 00:49:42;;;;;;;54.57;35.07;;;11.10;96.00;;;;;;5049658;28;20180;-93
2022/10/23 00:52:11;;;;;;;55.17;34.90;;;11.10;96.00;;;;;;5049015;28;20207;-93
2022/10/23 00:54:41;;;;;;;56.70;33.97;;;11.10;96.00;;;;;;5047865;28;20203;-93
2022/10/23 00:57:12;;;;;;;45.53;33.63;;;11.20;96.00;;;;;;5046675;28;20207;-94
2022/10/23 00:59:38;;;;;;;57.30;33.73;;;11.20;96.10;;;;;;5046382;28;20164;-93
2022/10/23 01:02:04;;;;;;;53.83;33.37;;;11.20;96.00;;;;;;5046872;28;20219;-93
2022/10/23 01:04:33;;;;;;;51.90;33.67;;;11.20;96.00;;;;;;5030129;28;20207;-93
2022/10/23 01:07:33;;;;;;;48.67;31.30;;;11.10;96.00;;;;;;5049570;28;20188;-93
2022/10/23 01:10:05;;;;;;;42.80;28.50;;;11.10;96.00;;;;;;5049816;28;20325;-92
2022/10/23 01:12:53;;;;;;;89.43;31.37;;;11.10;96.00;;;;;;5052016;28;20200;-93
2022/10/23 01:15:37;;;;;;;38.30;26.30;;;11.00;96.00;;;;;;5051797;28;20270;-93
2022/10/23 01:18:25;;;;;;;36.07;24.37;;;11.10;96.00;;;;;;5050746;28;20195;-93
2022/10/23 01:20:56;;;;;;;27.90;22.43;;;11.00;96.00;;;;;;5052297;28;20187;-93
2022/10/23 01:23:59;;;;;;;57.40;22.50;;;11.00;96.00;;;;;;5052281;28;20176;-93
2022/10/23 01:26:42;;;;;;;29.07;21.50;;;10.90;95.90;;;;;;5050783;28;20172;-93
2022/10/23 01:29:29;;;;;;;66.47;22.00;;;10.90;95.90;;;;;;5051643;28;20176;-93
2022/10/23 01:32:20;;;;;;;104.27;22.17;;;10.90;95.90;;;;;;5058235;28;20186;-93
2022/10/23 01:35:18;;;;;;;37.73;20.13;;;10.80;95.90;;;;;;5049601;28;20168;-93
2022/10/23 01:38:23;;;;;;;64.57;21.53;;;10.70;95.90;;;;;;5048664;28;20215;-93
2022/10/23 01:41:04;;;;;;;29.23;19.40;;;10.80;95.90;;;;;;5047705;28;20227;-93
2022/10/23 01:43:46;;;;;;;30.77;18.63;;;10.80;95.90;;;;;;5048909;28;20239;-93
2022/10/23 01:46:16;;;;;;;56.97;19.60;;;10.70;95.80;;;;;;5048123;28;20182;-93
2022/10/23 01:48:47;;;;;;;26.47;18.30;;;10.80;95.90;;;;;;5047766;28;20188;-93
2022/10/23 01:51:13;;;;;;;62.63;19.53;;;10.70;95.90;;;;;;5045524;28;20234;-93
2022/10/23 01:53:42;;;;;;;75.47;19.03;;;10.70;95.80;;;;;;5045987;28;20248;-93
2022/10/23 01:56:11;;;;;;;116.50;19.07;;;10.60;95.80;;;;;;5046261;28;20670;-93
2022/10/23 01:58:41;;;;;;;101.43;18.87;;;10.60;95.80;;;;;;5048574;28;20187;-92
2022/10/23 02:01:09;;;;;;;22.10;17.40;;;10.60;95.80;;;;;;5047834;28;20200;-93
2022/10/23 02:03:36;;;;;;;27.57;18.17;;;10.70;95.80;;;;;;5048034;28;20548;-93
2022/10/23 02:06:01;;;;;;;65.67;20.57;;;10.70;95.90;;;;;;5047983;28;20187;-93
2022/10/23 02:08:27;;;;;;;45.60;21.80;;;10.70;95.80;;;;;;5044337;28;20266;-93
2022/10/23 02:11:13;;;;;;;35.13;20.53;;;10.70;95.80;;;;;;5044057;28;20200;-93
2022/10/23 02:14:08;;;;;;;56.27;23.10;;;10.70;95.80;;;;;;5044890;28;20188;-93
2022/10/23 02:16:41;;;;;;;79.70;23.43;;;10.70;95.80;;;;;;5064269;28;20227;-93
2022/10/23 02:19:13;;;;;;;178.20;25.13;;;10.60;95.80;;;;;;5050159;28;20183;-93
2022/10/23 02:21:51;;;;;;;233.17;25.93;;;10.60;95.80;;;;;;5049276;28;20192;-93
2022/10/23 02:24:22;;;;;;;118.90;21.33;;;10.60;95.80;;;;;;5048161;28;20222;-93
2022/10/23 02:26:54;;;;;;;89.07;20.37;;;10.50;95.80;;;;;;5048643;28;20176;-93
2022/10/23 02:29:41;;;;;;;59.83;20.63;;;10.50;95.80;;;;;;5049853;28;20164;-93
2022/10/23 02:32:08;;;;;;;63.67;19.50;;;10.50;95.80;;;;;;5046728;28;20576;-93
2022/10/23 02:34:34;;;;;;;109.90;21.00;;;10.40;95.80;;;;;;5047682;28;20287;-93
2022/10/23 02:36:59;;;;;;;92.03;20.13;;;10.40;95.80;;;;;;5045810;28;20215;-93
2022/10/23 02:39:26;;;;;;;62.67;20.57;;;10.30;95.70;;;;;;5045771;28;20176;-93
2022/10/23 02:42:28;;;;;;;23.57;18.27;;;10.30;95.70;;;;;;5044746;28;20200;-92
2022/10/23 02:45:05;;;;;;;39.27;17.70;;;10.40;95.80;;;;;;4974243;28;20220;-92
2022/10/23 02:47:47;;;;;;;36.50;20.00;;;10.50;95.70;;;;;;5042955;28;20490;-93
2022/10/23 02:50:29;;;;;;;45.83;20.97;;;10.50;95.80;;;;;;5042253;28;20172;-93
2022/10/23 02:52:54;;;;;;;41.77;20.80;;;10.60;95.80;;;;;;5042856;28;20179;-92
2022/10/23 02:55:33;;;;;;;41.73;20.60;;;10.60;95.80;;;;;;5041398;28;20278;-93
2022/10/23 02:58:07;;;;;;;45.27;21.73;;;10.50;95.70;;;;;;5047791;28;20176;-93
2022/10/23 03:00:37;;;;;;;60.03;21.63;;;10.50;95.80;;;;;;5042209;28;20218;-92
2022/10/23 03:03:14;;;;;;;40.93;21.77;;;10.50;95.70;;;;;;5043969;28;20179;-92
2022/10/23 03:05:41;;;;;;;59.20;23.03;;;10.50;95.80;;;;;;5042222;28;20230;-92
2022/10/23 03:08:11;;;;;;;38.67;21.47;;;10.50;95.80;;;;;;5043754;28;20215;-93
2022/10/23 03:10:38;;;;;;;26.77;21.17;;;10.60;95.80;;;;;;5040519;28;20184;-93
2022/10/23 03:13:03;;;;;;;25.47;21.03;;;10.60;95.70;;;;;;5041417;28;20191;-93
2022/10/23 03:15:29;;;;;;;31.00;21.60;;;10.50;95.80;;;;;;5042078;28;20180;-93
2022/10/23 03:17:54;;;;;;;26.80;22.10;;;10.50;95.70;;;;;;5042965;28;20199;-93
2022/10/23 03:20:20;;;;;;;25.43;21.33;;;10.50;95.70;;;;;;5056012;28;20179;-93
2022/10/23 03:22:46;;;;;;;32.47;21.50;;;10.50;95.70;;;;;;5052643;28;20195;-94
2022/10/23 03:25:11;;;;;;;38.87;20.53;;;10.40;95.70;;;;;;5053155;28;20179;-93
2022/10/23 03:27:37;;;;;;;26.77;20.50;;;10.30;95.60;;;;;;5048751;28;20654;-93
2022/10/23 03:30:04;;;;;;;39.37;21.27;;;10.30;95.60;;;;;;5045415;28;20180;-93
2022/10/23 03:32:30;;;;;;;43.93;22.40;;;10.30;95.70;;;;;;5044488;28;20608;-93
2022/10/23 03:34:55;;;;;;;80.07;22.30;;;10.30;95.60;;;;;;5045311;28;20175;-92
2022/10/23 03:37:21;;;;;;;81.80;21.97;;;10.30;95.60;;;;;;5046944;28;20204;-93
2022/10/23 03:39:46;;;;;;;26.63;20.63;;;10.30;95.60;;;;;;5044860;28;20173;-93
2022/10/23 03:42:12;;;;;;;25.33;19.80;;;10.30;95.60;;;;;;5044371;28;20235;-92
2022/10/23 03:44:37;;;;;;;156.50;20.50;;;10.40;95.60;;;;;;5043930;28;20658;-93
2022/10/23 03:47:03;;;;;;;34.37;17.93;;;10.40;95.60;;;;;;5043014;28;20184;-93
2022/10/23 03:49:28;;;;;;;84.00;17.87;;;10.30;95.60;;;;;;5043184;28;20255;-93
2022/10/23 03:51:54;;;;;;;25.97;15.57;;;10.30;95.50;;;;;;5043692;28;20287;-93
2022/10/23 03:54:25;;;;;;;24.17;14.70;;;10.30;95.50;;;;;;5043586;28;20176;-93
2022/10/23 03:56:53;;;;;;;29.90;15.33;;;10.30;95.50;;;;;;5044469;28;20230;-93
2022/10/23 03:59:19;;;;;;;20.23;14.93;;;10.20;95.40;;;;;;5043485;28;20183;-92
2022/10/23 04:01:45;;;;;;;19.67;16.47;;;10.10;95.50;;;;;;5044666;28;20199;-92
2022/10/23 04:04:11;;;;;;;19.10;15.87;;;10.10;95.40;;;;;;5046172;28;20176;-93
2022/10/23 04:06:37;;;;;;;22.23;19.27;;;10.10;95.40;;;;;;5063362;28;20172;-93
2022/10/23 04:09:03;;;;;;;35.97;19.33;;;10.10;95.40;;;;;;5051443;28;20275;-93
2022/10/23 04:11:29;;;;;;;29.80;18.53;;;10.10;95.40;;;;;;5050550;28;20212;-93
2022/10/23 04:13:54;;;;;;;38.63;19.37;;;10.00;95.40;;;;;;5052962;28;20187;-93
2022/10/23 04:16:20;;;;;;;59.17;18.30;;;10.00;95.40;;;;;;5051228;28;20642;-92
2022/10/23 04:18:46;;;;;;;60.03;18.83;;;10.00;95.40;;;;;;5051276;28;20180;-93
2022/10/23 04:21:12;;;;;;;117.33;20.70;;;9.90;95.30;;;;;;5050729;28;20240;-93
2022/10/23 04:23:37;;;;;;;93.13;17.87;;;9.90;95.30;;;;;;5049249;28;20180;-93
2022/10/23 04:26:03;;;;;;;19.97;15.53;;;9.90;95.30;;;;;;5049297;28;20179;-93
2022/10/23 04:28:28;;;;;;;18.60;16.80;;;9.90;95.30;;;;;;5050514;28;20214;-93
2022/10/23 04:30:54;;;;;;;17.30;15.60;;;9.90;95.30;;;;;;5050951;28;20271;-93
2022/10/23 04:33:20;;;;;;;25.30;18.40;;;10.00;95.30;;;;;;5051060;28;20276;-93
2022/10/23 04:35:45;;;;;;;22.53;17.47;;;9.90;95.30;;;;;;5048786;28;20211;-93
2022/10/23 04:38:11;;;;;;;37.30;20.23;;;10.00;95.30;;;;;;5048982;28;20180;-93
2022/10/23 04:40:37;;;;;;;29.20;20.37;;;10.10;95.30;;;;;;5050387;28;20584;-93
2022/10/23 04:43:03;;;;;;;26.87;19.47;;;10.10;95.30;;;;;;5050341;28;20172;-93
2022/10/23 04:45:29;;;;;;;35.53;20.33;;;10.10;95.30;;;;;;5051188;28;20184;-93
2022/10/23 04:47:55;;;;;;;24.73;19.97;;;10.00;95.30;;;;;;5049178;28;20198;-93
2022/10/23 04:50:21;;;;;;;24.30;20.07;;;10.10;95.30;;;;;;5048868;28;20174;-93
2022/10/23 04:52:46;;;;;;;24.83;20.00;;;10.00;95.20;;;;;;5054203;28;20223;-93
2022/10/23 04:55:12;;;;;;;25.33;19.10;;;10.00;95.20;;;;;;5066609;28;20179;-93
2022/10/23 04:57:37;;;;;;;26.50;19.97;;;9.90;95.20;;;;;;5046922;28;20206;-93
2022/10/23 05:00:05;;;;;;;36.80;19.90;;;9.90;95.20;;;;;;5047069;28;20240;-93
2022/10/23 05:02:31;;;;;;;37.47;20.43;;;9.90;95.20;;;;;;5046685;28;20224;-93
2022/10/23 05:04:57;;;;;;;22.97;19.43;;;9.90;95.20;;;;;;5048435;28;20265;-93
2022/10/23 05:07:22;;;;;;;40.70;22.47;;;9.90;95.20;;;;;;5050175;28;20189;-93
2022/10/23 05:09:48;;;;;;;33.50;18.10;;;9.90;95.20;;;;;;5049130;28;20177;-92
2022/10/23 05:12:13;;;;;;;24.43;18.10;;;9.80;95.20;;;;;;5048762;28;20285;-92
2022/10/23 05:14:39;;;;;;;30.83;18.73;;;9.80;95.20;;;;;;5048998;28;20547;-93
2022/10/23 05:17:11;;;;;;;29.40;17.73;;;9.80;95.20;;;;;;5049327;28;20220;-92
2022/10/23 05:19:42;;;;;;;32.07;18.03;;;9.80;95.20;;;;;;5048999;28;20176;-93
2022/10/23 05:22:09;;;;;;;27.17;18.60;;;9.80;95.10;;;;;;5051959;28;20196;-93
2022/10/23 05:24:35;;;;;;;42.83;17.63;;;9.80;95.20;;;;;;5046782;28;20176;-93
2022/10/23 05:27:01;;;;;;;34.03;16.50;;;9.80;95.10;;;;;;5047217;28;20180;-93
2022/10/23 05:29:26;;;;;;;19.87;17.37;;;9.60;95.10;;;;;;5050878;28;20180;-93
2022/10/23 05:31:59;;;;;;;24.67;19.50;;;9.70;95.10;;;;;;5047459;28;20192;-93
2022/10/23 05:34:26;;;;;;;25.73;18.47;;;9.70;95.20;;;;;;5046295;28;20172;-93
2022/10/23 05:36:52;;;;;;;23.97;18.20;;;9.70;95.10;;;;;;5045202;28;20192;-93
2022/10/23 05:39:18;;;;;;;33.03;19.83;;;9.70;95.10;;;;;;5045764;28;20658;-93
2022/10/23 05:41:44;;;;;;;26.07;18.70;;;9.80;95.20;;;;;;5047418;28;20191;-93
2022/10/23 05:44:09;;;;;;;31.43;19.60;;;9.80;95.10;;;;;;5048187;28;20237;-93
2022/10/23 05:46:40;;;;;;;23.53;18.23;;;9.80;95.10;;;;;;5049416;28;20188;-93
2022/10/23 05:49:06;;;;;;;25.37;18.77;;;9.80;95.10;;;;;;5053961;28;20194;-93
2022/10/23 05:51:35;;;;;;;24.57;18.67;;;9.70;95.10;;;;;;5050118;28;20200;-94
2022/10/23 05:54:01;;;;;;;26.57;19.60;;;9.70;95.10;;;;;;5049660;28;20233;-93
2022/10/23 05:56:26;;;;;;;24.07;19.83;;;9.70;95.10;;;;;;5049371;28;20203;-93
2022/10/23 05:58:52;;;;;;;25.20;19.97;;;9.70;95.10;;;;;;5047813;28;20639;-93
2022/10/23 06:01:18;;;;;;;28.67;20.60;;;9.80;95.20;;;;;;5047062;28;20188;-93
2022/10/23 06:03:43;;;;;;;27.27;18.87;;;9.80;95.20;;;;;;5049952;28;20198;-93
2022/10/23 06:06:09;;;;;;;33.27;20.57;;;9.80;95.20;;;;;;5048277;28;20176;-93
2022/10/23 06:08:35;;;;;;;28.30;20.40;;;9.90;95.30;;;;;;5051001;28;20597;-93
2022/10/23 06:11:12;;;;;;;29.67;19.73;;;9.80;95.20;;;;;;5052211;28;20203;-93
2022/10/23 06:13:40;;;;;;;26.13;18.73;;;9.80;95.20;;;;;;5051689;28;20275;-93
2022/10/23 06:16:15;;;;;;;29.37;19.23;;;9.80;95.20;;;;;;5048463;28;20199;-93
2022/10/23 06:18:41;;;;;;;31.27;19.10;;;9.80;95.20;;;;;;5047447;28;20173;-93
2022/10/23 06:21:07;;;;;;;30.07;19.47;;;9.80;95.20;;;;;;5048466;28;20228;-93
2022/10/23 06:23:34;;;;;;;30.43;20.30;;;9.80;95.30;;;;;;5056510;28;20176;-93
2022/10/23 06:26:00;;;;;;;31.87;19.53;;;9.80;95.30;;;;;;5049245;28;20204;-93
2022/10/23 06:28:26;;;;;;;31.93;20.33;;;9.90;95.30;;;;;;5046547;28;20183;-93
2022/10/23 06:30:52;;;;;;;29.67;18.33;;;9.90;95.30;;;;;;5045641;28;20200;-93
2022/10/23 06:33:18;;;;;;;40.37;19.90;;;9.90;95.30;;;;;;5046232;28;20191;-93
2022/10/23 06:35:43;;;;;;;24.27;19.30;;;9.90;95.30;;;;;;5046646;28;20203;-93
2022/10/23 06:38:09;;;;;;;29.57;20.20;;;10.00;95.30;;;;;;5045927;28;20215;-93
2022/10/23 06:40:36;;;;;;;26.53;19.37;;;10.00;95.30;;;;;;5048185;28;20197;-93
2022/10/23 06:43:02;;;;;;;31.37;16.93;;;10.00;95.30;;;;;;5050975;28;20172;-93
2022/10/23 06:45:32;;;;;;;25.47;17.37;;;10.00;95.30;;;;;;5050855;28;20176;-93
2022/10/23 06:47:58;;;;;;;28.03;16.97;;;9.90;95.20;;;;;;5047847;28;20168;-93
2022/10/23 06:50:24;;;;;;;23.87;18.80;;;9.80;95.20;;;;;;5046920;28;20172;-93
2022/10/23 06:52:50;;;;;;;20.97;16.70;;;9.80;95.20;;;;;;5047943;28;20539;-93
2022/10/23 06:55:16;;;;;;;24.97;16.77;;;9.80;95.20;;;;;;5045652;28;20182;-93
2022/10/23 06:57:43;;;;;;;25.60;15.87;;;9.70;95.20;;;;;;5045439;28;20231;-93
2022/10/23 07:00:09;;;;;;;33.07;17.93;;;9.70;95.20;;;;;;5054852;28;20301;-93
2022/10/23 07:02:35;;;;;;;24.17;17.17;;;9.80;95.20;;;;;;5047591;28;20674;-93
2022/10/23 07:05:00;;;;;;;30.23;17.83;;;9.80;95.20;;;;;;5048935;28;20164;-93
2022/10/23 07:07:29;;;;;;;26.43;17.67;;;9.90;95.20;;;;;;5051796;28;20183;-93
2022/10/23 07:09:54;;;;;;;28.83;18.13;;;10.10;95.30;;;;;;5050986;28;20176;-93
2022/10/23 07:12:20;;;;;;;27.33;17.17;;;10.20;95.30;;;;;;5049644;28;20221;-93
2022/10/23 07:14:45;;;;;;;25.63;16.40;;;10.20;95.20;;;;;;5048082;28;20247;-93
2022/10/23 07:17:11;;;;;;;25.00;17.27;;;10.20;95.20;;;;;;5046015;28;20296;-93
2022/10/23 07:19:36;;;;;;;22.40;17.07;;;10.20;95.20;;;;;;5044929;28;20172;-93
2022/10/23 07:22:02;;;;;;;32.33;18.37;;;10.20;95.20;;;;;;5048275;28;20196;-93
2022/10/23 07:24:28;;;;;;;24.97;17.47;;;10.20;95.20;;;;;;5045353;28;20232;-93
2022/10/23 07:26:53;;;;;;;26.23;17.50;;;10.20;95.20;;;;;;5043729;28;20200;-92
2022/10/23 07:29:19;;;;;;;27.37;17.80;;;10.10;95.20;;;;;;5042054;28;20183;-93
2022/10/23 07:31:44;;;;;;;24.70;18.13;;;10.20;95.20;;;;;;5043365;28;20204;-93
2022/10/23 07:34:10;;;;;;;27.33;18.70;;;10.20;95.20;;;;;;5043668;28;20321;-93
2022/10/23 07:36:36;;;;;;;26.47;18.47;;;10.30;95.30;;;;;;5045419;28;20242;-93
2022/10/23 07:39:02;;;;;;;31.03;18.87;;;10.40;95.30;;;;;;5054300;28;20180;-93
2022/10/23 07:41:28;;;;;;;33.87;19.13;;;10.50;95.30;;;;;;5048439;28;20196;-93
2022/10/23 07:43:56;;;;;;;31.40;19.27;;;10.60;95.40;;;;;;5057214;28;20257;-93
2022/10/23 07:46:22;;;;;;;34.50;19.47;;;10.70;95.40;;;;;;5057113;28;20191;-93
2022/10/23 07:48:48;;;;;;;31.63;18.40;;;10.80;95.40;;;;;;5054683;28;20187;-93
2022/10/23 07:51:14;;;;;;;27.67;18.37;;;10.80;95.40;;;;;;5055065;28;20203;-93
2022/10/23 07:53:41;;;;;;;31.93;19.60;;;11.00;95.50;;;;;;5052587;28;20180;-93
2022/10/23 07:56:28;;;;;;;29.57;19.30;;;11.00;95.50;;;;;;5051853;28;20298;-93
2022/10/23 07:58:55;;;;;;;28.63;19.57;;;11.10;95.50;;;;;;5049996;28;20190;-93
2022/10/23 08:01:36;;;;;;;34.50;19.50;;;11.10;95.50;;;;;;5056146;28;20290;-93
2022/10/23 08:04:02;;;;;;;30.67;19.63;;;11.20;95.50;;;;;;5053349;28;20194;-93
2022/10/23 08:06:28;;;;;;;27.43;19.63;;;11.20;95.50;;;;;;5053376;28;20204;-92
2022/10/23 08:08:54;;;;;;;34.77;20.70;;;11.20;95.50;;;;;;5048798;28;20176;-93
2022/10/23 08:11:27;;;;;;;30.77;19.93;;;11.30;95.60;;;;;;5046237;28;20290;-91
2022/10/23 08:13:54;;;;;;;38.67;19.63;;;11.40;95.60;;;;;;5039406;28;20176;-91
2022/10/23 08:16:21;;;;;;;31.40;19.47;;;11.50;95.70;;;;;;5039622;28;20215;-91
2022/10/23 08:18:48;;;;;;;27.70;18.30;;;11.60;95.60;;;;;;5039306;28;20180;-90
2022/10/23 08:21:14;;;;;;;27.47;18.83;;;11.60;95.60;;;;;;5046545;28;20295;-92
2022/10/23 08:23:40;;;;;;;34.73;19.23;;;11.70;95.70;;;;;;5050996;28;20180;-92
2022/10/23 08:26:07;;;;;;;28.93;18.40;;;11.70;95.70;;;;;;5050180;28;20180;-93
2022/10/23 08:28:33;;;;;;;24.83;18.37;;;11.70;95.70;;;;;;5046138;28;20176;-92
2022/10/23 08:31:06;;;;;;;30.30;18.13;;;11.80;95.70;;;;;;5041946;28;20200;-92
2022/10/23 08:33:31;;;;;;;35.93;18.30;;;12.00;95.70;;;;;;5046838;28;20176;-93
2022/10/23 08:35:57;;;;;;;30.17;18.10;;;12.00;95.80;;;;;;5048566;28;20238;-92
2022/10/23 08:38:22;;;;;;;33.57;17.93;;;12.10;95.80;;;;;;5053657;28;20180;-93
2022/10/23 08:40:48;;;;;;;29.77;17.50;;;12.20;95.80;;;;;;5052443;28;20227;-93
2022/10/23 08:43:24;;;;;;;30.30;18.13;;;12.20;95.70;;;;;;5050549;28;20179;-93
2022/10/23 08:45:58;;;;;;;29.03;16.23;;;12.30;95.80;;;;;;5054729;28;20199;-93
2022/10/23 08:48:38;;;;;;;32.80;19.27;;;12.30;95.80;;;;;;5053482;28;20242;-92
2022/10/23 08:51:26;;;;;;;23.97;17.27;;;12.50;95.80;;;;;;5052692;28;20673;-93
2022/10/23 08:53:58;;;;;;;32.00;18.17;;;12.60;95.80;;;;;;5051794;28;20176;-93
2022/10/23 08:56:32;;;;;;;30.17;17.73;;;12.60;95.80;;;;;;5051178;28;20195;-91
2022/10/23 08:59:25;;;;;;;33.23;16.33;;;12.70;95.80;;;;;;5050143;28;20226;-92
2022/10/23 09:02:14;;;;;;;30.97;17.13;;;12.70;95.80;;;;;;5053689;28;20289;-93
2022/10/23 09:04:41;;;;;;;31.37;17.67;;;12.80;95.80;;;;;;5049566;28;20187;-93
2022/10/23 09:07:38;;;;;;;30.90;16.43;;;12.90;95.80;;;;;;5049384;28;20172;-92
2022/10/23 09:10:29;;;;;;;30.67;15.73;;;12.90;95.70;;;;;;5051157;28;20211;-93
2022/10/23 09:13:31;;;;;;;26.93;16.20;;;12.90;95.70;;;;;;5051292;28;20182;-93
2022/10/23 09:16:31;;;;;;;23.30;16.00;;;12.90;95.70;;;;;;5013536;28;20204;-93
2022/10/23 09:18:57;;;;;;;30.30;16.43;;;13.00;95.60;;;;;;5048961;28;20176;-93
2022/10/23 09:21:30;;;;;;;24.47;15.57;;;13.00;95.60;;;;;;5050960;28;20576;-93
2022/10/23 09:23:55;;;;;;;20.30;15.93;;;13.00;95.50;;;;;;5053166;28;20165;-93
2022/10/23 09:26:21;;;;;;;30.07;17.30;;;13.10;95.50;;;;;;5049461;28;20194;-93
2022/10/23 09:28:49;;;;;;;27.47;16.83;;;13.10;95.50;;;;;;5048717;28;20187;-92
2022/10/23 09:31:16;;;;;;;29.17;16.10;;;13.20;95.50;;;;;;5045771;28;20199;-92
2022/10/23 09:33:53;;;;;;;27.23;16.33;;;13.20;95.50;;;;;;5046334;28;20669;-92
2022/10/23 09:36:23;;;;;;;25.70;17.77;;;13.30;95.40;;;;;;5041369;28;20211;-92
2022/10/23 09:38:53;;;;;;;29.17;16.23;;;13.40;95.40;;;;;;5042298;28;20180;-92
2022/10/23 09:41:28;;;;;;;27.33;16.47;;;13.40;95.30;;;;;;5043168;28;20606;-92
2022/10/23 09:44:06;;;;;;;27.27;17.50;;;13.50;95.30;;;;;;5041481;28;20306;-92
2022/10/23 09:46:45;;;;;;;25.27;17.07;;;13.50;95.30;;;;;;5041484;28;20183;-92
2022/10/23 09:49:24;;;;;;;32.50;17.27;;;13.50;95.20;;;;;;5042039;28;20172;-92
2022/10/23 09:52:08;;;;;;;30.37;17.13;;;13.60;95.20;;;;;;5043495;28;20200;-92
2022/10/23 09:54:38;;;;;;;27.77;15.82;;;13.70;95.10;;;;;;5045853;28;20222;-93
2022/10/23 09:57:18;;;;;;;23.92;15.85;;;13.80;95.10;;;;;;5044459;28;20410;-92
2022/10/23 09:59:50;;;;;;;24.70;16.55;;;13.80;95.10;;;;;;5044541;28;20175;-93
2022/10/23 10:02:30;;;;;;;28.60;15.35;;;13.90;95.10;;;;;;5044401;28;20277;-92
2022/10/23 10:04:57;;;;;;;28.17;14.95;;;14.00;95.10;;;;;;5041315;28;20172;-92
2022/10/23 10:07:26;;;;;;;26.10;15.43;;;14.10;95.00;;;;;;5040020;28;20625;-91
2022/10/23 10:09:53;;;;;;;26.63;12.15;;;14.20;95.10;;;;;;5040394;28;20230;-91
2022/10/23 10:12:56;;;;;;;23.33;12.63;;;14.30;95.00;;;;;;5037997;28;20689;-91
2022/10/23 10:15:36;;;;;;;20.98;10.75;;;14.30;95.00;;;;;;5026630;28;20711;-91
2022/10/23 10:18:27;;;;;;;19.48;10.50;;;14.30;94.80;;;;;;5038449;28;20195;-91
2022/10/23 10:21:27;;;;;;;20.80;10.88;;;14.40;94.80;;;;;;5043154;28;20195;-92
2022/10/23 10:24:03;;;;;;;22.20;10.57;;;14.50;94.70;;;;;;5047679;28;20222;-91
2022/10/23 10:26:50;;;;;;;15.48;9.32;;;14.70;94.60;;;;;;5036417;28;20639;-91
2022/10/23 10:29:41;;;;;;;20.60;10.57;;;14.80;94.40;;;;;;5037061;28;20206;-91
2022/10/23 10:32:42;;;;;;;14.07;8.57;;;14.80;94.20;;;;;;5036875;28;20202;-92
2022/10/23 10:35:28;;;;;;;15.20;8.02;;;14.80;94.00;;;;;;5036819;28;20167;-91
2022/10/23 10:38:25;;;;;;;15.52;8.77;;;14.90;93.90;;;;;;5036351;28;20282;-91
2022/10/23 10:41:21;;;;;;;11.82;7.22;;;15.00;93.70;;;;;;5009044;28;20203;-90
2022/10/23 10:44:35;;;;;;;17.13;7.43;;;15.00;93.40;;;;;;5036490;28;20172;-91
2022/10/23 10:47:31;;;;;;;14.68;7.50;;;15.10;93.00;;;;;;5019840;28;20190;-91
2022/10/23 10:50:14;;;;;;;14.35;6.35;;;15.20;92.90;;;;;;5036654;28;20247;-91
2022/10/23 10:53:06;;;;;;;14.13;6.35;;;15.20;92.60;;;;;;5037006;28;20216;-91
2022/10/23 10:55:37;;;;;;;12.88;7.28;;;15.40;92.50;;;;;;5036304;28;20297;-91
2022/10/23 10:58:26;;;;;;;10.15;6.22;;;15.40;92.30;;;;;;5037606;28;20515;-91
2022/10/23 11:00:55;;;;;;;12.68;6.30;;;15.50;92.00;;;;;;5036493;28;20317;-91
2022/10/23 11:03:32;;;;;;;12.48;5.90;;;15.60;91.90;;;;;;5036588;28;20195;-91
2022/10/23 11:06:01;;;;;;;16.92;6.10;;;15.70;91.60;;;;;;5037847;28;20168;-91
2022/10/23 11:08:35;;;;;;;10.45;6.15;;;15.70;91.30;;;;;;5036397;28;20180;-91
2022/10/23 11:11:23;;;;;;;6.28;5.65;;;15.80;91.10;;;;;;5038073;28;20240;-92
2022/10/23 11:13:51;;;;;;;11.15;5.13;;;15.90;90.90;;;;;;5037042;28;20176;-91
2022/10/23 11:16:24;;;;;;;9.13;5.30;;;15.90;90.60;;;;;;5036850;28;20208;-91
2022/10/23 11:19:02;;;;;;;16.40;5.80;;;16.20;90.90;;;;;;5038285;28;20689;-92
2022/10/23 11:21:53;;;;;;;11.68;4.45;;;16.10;90.40;;;;;;5037060;28;20195;-91
2022/10/23 11:24:41;;;;;;;17.17;4.70;;;16.00;90.00;;;;;;5036904;28;20164;-92
2022/10/23 11:27:24;;;;;;;7.22;4.05;;;15.90;89.50;;;;;;5042061;28;20173;-92
2022/10/23 11:30:08;;;;;;;12.40;4.50;;;15.90;89.40;;;;;;5037411;28;20180;-91
2022/10/23 11:33:27;;;;;;;13.10;4.80;;;16.00;88.90;;;;;;5037446;28;20200;-92
2022/10/23 11:36:15;;;;;;;8.68;4.57;;;16.10;89.10;;;;;;5036824;28;20176;-92
2022/10/23 11:38:52;;;;;;;10.38;6.05;;;16.20;88.70;;;;;;5036613;28;20160;-92
2022/10/23 11:41:25;;;;;;;13.75;4.28;;;16.30;88.60;;;;;;5036845;28;20275;-92
2022/10/23 11:44:03;;;;;;;10.65;4.47;;;16.30;88.40;;;;;;5036397;28;20176;-92
2022/10/23 11:46:37;;;;;;;12.82;4.18;;;16.40;88.20;;;;;;5036446;28;20206;-92
2022/10/23 11:49:04;;;;;;;8.93;4.40;;;16.50;87.80;;;;;;5036100;28;20160;-90
2022/10/23 11:51:41;;;;;;;14.93;4.32;;;16.70;87.70;;;;;;5035632;28;20200;-92
2022/10/23 11:54:12;;;;;;;10.35;4.32;;;16.70;87.10;;;;;;5036151;28;20207;-91
2022/10/23 11:57:05;;;;;;;13.05;4.65;;;16.70;86.70;;;;;;5035910;28;20263;-91
2022/10/23 11:59:44;;;;;;;9.82;4.53;;;16.70;86.10;;;;;;5035965;28;20225;-91
2022/10/23 12:02:38;;;;;;;17.25;4.75;;;16.70;86.30;;;;;;5036072;28;20278;-91
2022/10/23 12:05:07;;;;;;;8.07;4.13;;;16.80;86.20;;;;;;5036320;28;20234;-91
2022/10/23 12:07:39;;;;;;;19.67;4.35;;;16.90;86.20;;;;;;5036070;28;20225;-91
2022/10/23 12:10:26;;;;;;;7.30;3.75;;;16.80;85.30;;;;;;5036360;28;20173;-92
2022/10/23 12:13:02;;;;;;;14.35;4.18;;;16.90;85.60;;;;;;5035989;28;20172;-91
2022/10/23 12:15:29;;;;;;;7.68;4.30;;;17.00;85.00;;;;;;5036204;28;20179;-90
2022/10/23 12:18:12;;;;;;;10.27;3.58;;;17.00;84.80;;;;;;5036253;28;20219;-91
2022/10/23 12:20:46;;;;;;;13.38;4.57;;;17.00;84.50;;;;;;5036997;28;20168;-92
2022/10/23 12:23:26;;;;;;;15.30;5.95;;;17.00;84.30;;;;;;5036642;28;20168;-91
2022/10/23 12:26:00;;;;;;;16.13;7.15;;;17.20;84.40;;;;;;5037320;28;20171;-91
2022/10/23 12:28:40;;;;;;;9.50;3.50;;;17.20;84.40;;;;;;5037661;28;20172;-91
2022/10/23 12:31:36;;;;;;;10.77;3.58;;;17.20;83.90;;;;;;5039774;28;20240;-91
2022/10/23 12:34:36;;;;;;;6.88;3.70;;;17.20;83.70;;;;;;5039374;28;20175;-90
2022/10/23 12:37:24;;;;;;;16.27;3.65;;;17.20;83.80;;;;;;5039129;28;20195;-91
2022/10/23 12:39:54;;;;;;;10.85;4.32;;;17.20;84.50;;;;;;5038627;28;20182;-90
2022/10/23 12:42:23;;;;;;;7.57;4.22;;;17.20;84.20;;;;;;5039274;28;20206;-89
2022/10/23 12:45:13;;;;;;;15.55;4.60;;;17.20;84.70;;;;;;5038822;28;20541;-89
2022/10/23 12:47:39;;;;;;;7.85;3.78;;;17.20;84.90;;;;;;5038986;28;20188;-89
2022/10/23 12:50:15;;;;;;;9.20;4.18;;;17.10;84.90;;;;;;5056606;28;20650;-89
2022/10/23 12:52:57;;;;;;;7.85;3.75;;;17.10;84.20;;;;;;5039022;28;20196;-90
2022/10/23 12:55:25;;;;;;;11.90;3.92;;;17.00;84.10;;;;;;5038636;28;20652;-90
2022/10/23 12:57:51;;;;;;;14.38;4.03;;;17.00;84.30;;;;;;5056938;28;20192;-89